createdAt,value
2022-08-14T00:02:22.243Z,9.02
2022-08-14T00:07:47.953Z,10.13
2022-08-14T00:13:12.790Z,7.65
2022-08-14T00:19:06.306Z,8.77
2022-08-14T00:24:23.198Z,6.75
2022-08-14T00:29:51.734Z,8.05
2022-08-14T00:35:14.723Z,10.20
2022-08-14T00:40:37.100Z,10.10
2022-08-14T00:46:05.294Z,9.05
2022-08-14T00:51:38.020Z,9.48
2022-08-14T00:57:03.443Z,11.55
2022-08-14T01:02:28.356Z,8.38
2022-08-14T01:08:00.920Z,8.80
2022-08-14T01:13:42.208Z,9.15
2022-08-14T01:19:23.988Z,7.25
2022-08-14T01:24:47.085Z,9.93
2022-08-14T01:30:10.280Z,10.07
2022-08-14T01:36:05.103Z,8.70
2022-08-14T01:41:16.502Z,11.20
2022-08-14T01:46:46.240Z,8.68
2022-08-14T01:52:33.721Z,8.55
2022-08-14T01:58:02.270Z,9.60
2022-08-14T02:03:41.342Z,11.10
2022-08-14T02:09:19.402Z,11.13
2022-08-14T02:14:59.128Z,11.00
2022-08-14T02:20:24.242Z,10.25
2022-08-14T02:25:54.753Z,11.63
2022-08-14T02:31:18.052Z,10.52
2022-08-14T02:37:03.602Z,13.88
2022-08-14T02:42:37.221Z,10.18
2022-08-14T02:48:01.836Z,9.38
2022-08-14T02:53:24.947Z,12.70
2022-08-14T02:58:50.674Z,11.55
2022-08-14T03:04:15.443Z,11.23
2022-08-14T03:09:41.849Z,10.90
2022-08-14T03:15:22.556Z,14.23
2022-08-14T03:20:44.743Z,10.63
2022-08-14T03:26:29.567Z,11.05
2022-08-14T03:31:54.887Z,11.50
2022-08-14T03:37:51.841Z,11.40
2022-08-14T03:43:05.730Z,13.07
2022-08-14T03:48:31.105Z,12.57
2022-08-14T03:54:02.950Z,13.98
2022-08-14T03:59:28.698Z,10.75
2022-08-14T04:04:52.829Z,14.65
2022-08-14T04:10:17.460Z,11.88
2022-08-14T04:16:01.045Z,17.98
2022-08-14T04:21:28.370Z,11.75
2022-08-14T04:26:50.599Z,14.93
2022-08-14T04:32:58.522Z,12.55
2022-08-14T04:38:36.014Z,12.07
2022-08-14T04:43:57.266Z,13.82
2022-08-14T04:49:20.139Z,13.10
2022-08-14T04:54:42.782Z,13.32
2022-08-14T05:00:06.856Z,11.60
2022-08-14T05:05:39.579Z,12.27
2022-08-14T05:11:04.897Z,15.55
2022-08-14T05:16:31.720Z,11.68
2022-08-14T05:22:15.582Z,11.13
2022-08-14T05:27:40.167Z,10.93
2022-08-14T05:33:04.865Z,14.57
2022-08-14T05:38:35.275Z,12.93
2022-08-14T05:43:57.623Z,12.57
2022-08-14T05:49:20.102Z,11.80
2022-08-14T05:54:42.646Z,11.73
2022-08-14T06:00:07.192Z,11.98
2022-08-14T06:05:31.838Z,11.02
2022-08-14T06:11:02.946Z,12.70
2022-08-14T06:16:26.483Z,13.73
2022-08-14T06:21:52.086Z,12.45
2022-08-14T06:27:21.108Z,13.80
2022-08-14T06:32:46.198Z,12.18
2022-08-14T06:38:09.002Z,10.60
2022-08-14T06:43:33.778Z,14.75
2022-08-14T06:48:56.014Z,13.32
2022-08-14T06:54:18.471Z,11.80
2022-08-14T06:59:41.997Z,12.43
2022-08-14T07:05:23.614Z,13.38
2022-08-14T07:10:51.812Z,10.30
2022-08-14T07:16:14.642Z,12.38
2022-08-14T07:21:41.819Z,13.90
2022-08-14T07:27:04.343Z,9.95
2022-08-14T07:32:33.914Z,15.43
2022-08-14T07:37:56.869Z,12.80
2022-08-14T07:43:19.526Z,13.20
2022-08-14T07:48:44.040Z,16.10
2022-08-14T07:54:11.707Z,12.13
2022-08-14T07:59:42.306Z,9.75
2022-08-14T08:05:06.718Z,9.52
2022-08-14T08:11:02.490Z,7.93
2022-08-14T08:16:14.650Z,10.15
2022-08-14T08:21:43.769Z,8.95
2022-08-14T08:27:17.571Z,7.25
2022-08-14T08:32:42.345Z,8.30
2022-08-14T08:39:15.495Z,6.80
2022-08-14T08:43:52.686Z,7.15
2022-08-14T08:49:15.339Z,9.13
2022-08-14T08:54:39.217Z,9.55
2022-08-14T09:00:02.479Z,5.78
2022-08-14T09:05:34.715Z,6.40
2022-08-14T09:10:57.820Z,7.22
2022-08-14T09:16:23.671Z,7.55
2022-08-14T09:21:47.656Z,5.32
2022-08-14T09:27:10.955Z,9.18
2022-08-14T09:32:59.155Z,11.50
2022-08-14T09:38:47.637Z,6.35
2022-08-14T09:44:29.954Z,8.40
2022-08-14T09:49:54.361Z,5.57
2022-08-14T09:55:21.557Z,5.32
2022-08-14T10:01:00.691Z,5.13
2022-08-14T10:06:28.604Z,7.30
2022-08-14T10:11:58.975Z,12.68
2022-08-14T10:17:27.478Z,5.82
2022-08-14T10:23:12.191Z,7.50
2022-08-14T10:29:18.374Z,6.13
2022-08-14T10:34:36.538Z,6.53
2022-08-14T10:40:10.683Z,6.05
2022-08-14T10:45:42.017Z,4.90
2022-08-14T10:51:09.177Z,6.13
2022-08-14T10:56:35.611Z,5.47
2022-08-14T11:01:59.905Z,5.35
2022-08-14T11:07:22.974Z,10.32
2022-08-14T11:12:49.742Z,8.95
2022-08-14T11:18:20.312Z,4.93
2022-08-14T11:23:57.270Z,5.47
2022-08-14T11:29:22.265Z,6.10
2022-08-14T11:34:50.242Z,6.93
2022-08-14T11:40:16.796Z,4.57
2022-08-14T11:45:50.454Z,5.93
2022-08-14T11:51:17.918Z,4.45
2022-08-14T11:56:41.735Z,4.07
2022-08-14T12:03:01.837Z,4.55
2022-08-14T12:08:04.124Z,3.05
2022-08-14T12:13:34.691Z,3.80
2022-08-14T12:18:58.539Z,3.22
2022-08-14T12:24:35.829Z,4.57
2022-08-14T12:30:00.035Z,3.58
2022-08-14T12:35:23.811Z,3.55
2022-08-14T12:40:51.516Z,6.90
2022-08-14T12:46:35.928Z,3.55
2022-08-14T12:52:00.096Z,3.47
2022-08-14T12:57:24.306Z,3.20
2022-08-14T13:02:54.967Z,4.20
2022-08-14T13:08:32.882Z,3.20
2022-08-14T13:13:59.486Z,3.15
2022-08-14T13:19:24.350Z,3.20
2022-08-14T13:24:49.298Z,2.70
2022-08-14T13:30:14.514Z,2.65
2022-08-14T13:35:47.661Z,3.08
2022-08-14T13:41:11.312Z,2.90
2022-08-14T13:46:34.732Z,3.38
2022-08-14T13:51:59.133Z,2.90
2022-08-14T13:57:22.842Z,2.83
2022-08-14T14:02:54.442Z,2.58
2022-08-14T14:08:18.734Z,3.63
2022-08-14T14:13:45.354Z,3.05
2022-08-14T14:19:09.713Z,3.03
2022-08-14T14:24:34.795Z,4.82
2022-08-14T14:29:59.410Z,2.42
2022-08-14T14:35:22.663Z,4.07
2022-08-14T14:41:01.025Z,2.70
2022-08-14T14:46:36.610Z,3.10
2022-08-14T14:51:59.503Z,3.00
2022-08-14T14:57:22.122Z,3.72
2022-08-14T15:02:49.621Z,3.53
2022-08-14T15:08:16.825Z,3.10
2022-08-14T15:13:43.103Z,3.92
2022-08-14T15:19:15.379Z,3.63
2022-08-14T15:24:38.695Z,3.55
2022-08-14T15:30:03.857Z,4.25
2022-08-14T15:35:28.051Z,4.10
2022-08-14T15:40:56.206Z,5.55
2022-08-14T15:46:25.305Z,4.50
2022-08-14T15:52:05.059Z,5.22
2022-08-14T15:57:27.568Z,5.20
2022-08-14T16:02:49.962Z,4.78
2022-08-14T16:08:26.562Z,5.07
2022-08-14T16:13:51.980Z,4.65
2022-08-14T16:19:21.362Z,9.07
2022-08-14T16:24:59.842Z,5.05
2022-08-14T16:30:27.754Z,11.20
2022-08-14T16:35:59.544Z,7.80
2022-08-14T16:41:27.314Z,9.15
2022-08-14T16:46:56.834Z,7.38
2022-08-14T16:52:44.108Z,10.50
2022-08-14T16:58:03.602Z,5.63
2022-08-14T17:03:26.050Z,6.50
2022-08-14T17:08:48.457Z,6.63
2022-08-14T17:14:11.034Z,6.18
2022-08-14T17:19:41.242Z,5.78
2022-08-14T17:25:04.910Z,6.57
2022-08-14T17:30:57.028Z,5.95
2022-08-14T17:36:24.291Z,8.68
2022-08-14T17:42:01.807Z,8.68
2022-08-14T17:47:27.320Z,9.25
2022-08-14T17:52:50.777Z,8.20
2022-08-14T17:58:20.772Z,7.50
2022-08-14T18:03:53.189Z,7.65
2022-08-14T18:09:26.004Z,8.52
2022-08-14T18:14:52.899Z,6.72
2022-08-14T18:20:15.861Z,12.05
2022-08-14T18:25:59.104Z,7.70
2022-08-14T18:31:21.447Z,9.18
2022-08-14T18:36:51.235Z,7.72
2022-08-14T18:42:23.865Z,11.95
2022-08-14T18:48:16.152Z,7.53
2022-08-14T18:54:26.129Z,10.95
2022-08-14T18:59:52.624Z,8.93
2022-08-14T19:05:39.446Z,9.40
2022-08-14T19:11:32.395Z,8.10
2022-08-14T19:16:55.177Z,11.45
2022-08-14T19:22:29.920Z,7.88
2022-08-14T19:28:31.546Z,12.93
2022-08-14T19:33:56.384Z,9.75
2022-08-14T19:39:18.940Z,10.82
2022-08-14T19:44:42.824Z,9.00
2022-08-14T19:50:38.268Z,7.05
2022-08-14T19:56:04.772Z,7.07
2022-08-14T20:01:37.283Z,9.38
2022-08-14T20:07:04.383Z,11.13
2022-08-14T20:12:36.610Z,10.23
2022-08-14T20:18:39.001Z,7.75
2022-08-14T20:24:30.947Z,9.60
2022-08-14T20:30:29.655Z,13.68
2022-08-14T20:35:55.911Z,11.20
2022-08-14T20:41:20.419Z,13.95
2022-08-14T20:46:44.917Z,17.38
2022-08-14T20:52:19.171Z,10.82
2022-08-14T20:57:43.602Z,11.55
2022-08-14T21:03:56.331Z,9.88
2022-08-14T21:09:43.956Z,10.68
2022-08-14T21:15:11.371Z,9.48
2022-08-14T21:20:37.082Z,11.55
2022-08-14T21:25:59.868Z,12.52
2022-08-14T21:31:22.487Z,10.48
2022-08-14T21:36:46.692Z,10.95
2022-08-14T21:42:10.973Z,12.43
2022-08-14T21:47:33.690Z,10.65
2022-08-14T21:53:01.033Z,9.90
2022-08-14T21:58:53.332Z,8.82
2022-08-14T22:04:33.047Z,11.77
2022-08-14T22:09:58.468Z,8.93
2022-08-14T22:15:21.943Z,12.65
2022-08-14T22:20:44.803Z,9.85
2022-08-14T22:26:07.464Z,10.80
2022-08-14T22:31:35.080Z,12.35
2022-08-14T22:37:02.625Z,10.98
2022-08-14T22:42:25.575Z,13.43
2022-08-14T22:47:48.111Z,11.30
2022-08-14T22:53:18.439Z,11.88
2022-08-14T22:58:41.965Z,11.85
2022-08-14T23:04:06.390Z,15.07
2022-08-14T23:09:36.718Z,11.32
2022-08-14T23:15:01.324Z,11.32
2022-08-14T23:20:29.439Z,14.15
2022-08-14T23:26:00.681Z,13.18
2022-08-14T23:31:36.417Z,13.80
2022-08-14T23:36:58.796Z,14.38
2022-08-14T23:42:40.074Z,11.23
2022-08-14T23:48:03.115Z,13.57
2022-08-14T23:53:47.996Z,14.90
2022-08-14T23:59:11.018Z,15.60
